createdAt,value
2022-12-19T00:01:04.728Z,32.42
2022-12-19T00:03:31.627Z,29.20
2022-12-19T00:06:02.157Z,33.10
2022-12-19T00:08:28.806Z,30.15
2022-12-19T00:10:58.074Z,33.55
2022-12-19T00:13:25.163Z,33.00
2022-12-19T00:15:52.056Z,35.42
2022-12-19T00:18:18.643Z,30.52
2022-12-19T00:20:45.283Z,36.85
2022-12-19T00:23:11.870Z,36.78
2022-12-19T00:25:39.651Z,37.80
2022-12-19T00:28:06.796Z,35.85
2022-12-19T00:30:33.383Z,35.53
2022-12-19T00:33:00.264Z,37.67
2022-12-19T00:35:26.822Z,41.10
2022-12-19T00:37:53.355Z,33.80
2022-12-19T00:40:19.994Z,32.28
2022-12-19T00:42:53.229Z,36.83
2022-12-19T00:45:20.150Z,37.17
2022-12-19T00:47:46.772Z,45.50
2022-12-19T00:50:13.434Z,37.05
2022-12-19T00:52:39.975Z,40.90
2022-12-19T00:55:11.189Z,39.70
2022-12-19T00:57:45.209Z,34.90
2022-12-19T01:00:12.415Z,35.80
2022-12-19T01:02:39.054Z,39.05
2022-12-19T01:05:06.156Z,38.35
2022-12-19T01:07:32.791Z,36.83
2022-12-19T01:09:59.586Z,37.05
2022-12-19T01:12:44.790Z,39.40
2022-12-19T01:15:12.378Z,37.53
2022-12-19T01:17:44.209Z,43.88
2022-12-19T01:20:12.740Z,40.17
2022-12-19T01:22:39.334Z,45.30
2022-12-19T01:25:07.038Z,36.05
2022-12-19T01:27:33.645Z,36.72
2022-12-19T01:30:01.132Z,42.75
2022-12-19T01:32:27.773Z,41.53
2022-12-19T01:34:54.377Z,41.28
2022-12-19T01:37:21.208Z,38.30
2022-12-19T01:39:47.783Z,44.97
2022-12-19T01:42:17.680Z,38.85
2022-12-19T01:45:13.854Z,38.92
2022-12-19T01:47:50.505Z,44.45
2022-12-19T01:50:58.454Z,37.55
2022-12-19T01:53:32.249Z,40.08
2022-12-19T01:55:59.355Z,43.00
2022-12-19T01:58:25.954Z,40.15
2022-12-19T02:00:52.594Z,40.42
2022-12-19T02:03:28.277Z,41.35
2022-12-19T02:05:55.484Z,35.85
2022-12-19T02:08:23.766Z,40.00
2022-12-19T02:10:50.967Z,41.67
2022-12-19T02:13:18.164Z,38.90
2022-12-19T02:15:51.008Z,43.67
2022-12-19T02:18:29.611Z,45.05
2022-12-19T02:21:29.772Z,40.15
2022-12-19T02:24:22.760Z,38.85
2022-12-19T02:27:16.855Z,38.60
2022-12-19T02:29:43.376Z,33.72
2022-12-19T02:32:20.175Z,36.08
2022-12-19T02:35:08.393Z,33.40
2022-12-19T02:40:11.222Z,33.75
2022-12-19T02:42:44.349Z,30.48
2022-12-19T02:45:14.978Z,34.30
2022-12-19T02:47:46.900Z,29.67
2022-12-19T02:50:13.481Z,35.60
2022-12-19T02:52:39.995Z,32.42
2022-12-19T02:55:11.127Z,32.38
2022-12-19T02:58:03.478Z,36.40
2022-12-19T03:00:30.220Z,39.40
2022-12-19T03:03:00.935Z,40.50
2022-12-19T03:05:46.002Z,36.40
2022-12-19T03:08:26.621Z,33.78
2022-12-19T03:11:03.071Z,35.08
2022-12-19T03:13:38.192Z,31.73
2022-12-19T03:16:09.143Z,30.95
2022-12-19T03:18:36.183Z,36.95
2022-12-19T03:21:06.763Z,30.23
2022-12-19T03:23:33.363Z,33.28
2022-12-19T03:26:10.038Z,34.63
2022-12-19T03:28:51.088Z,33.67
2022-12-19T03:31:19.765Z,38.13
2022-12-19T03:33:48.321Z,33.67
2022-12-19T03:38:45.695Z,32.45
2022-12-19T03:41:14.709Z,30.08
2022-12-19T03:43:43.558Z,31.15
2022-12-19T03:46:19.064Z,34.45
2022-12-19T03:48:51.799Z,32.90
2022-12-19T03:51:30.409Z,32.75
2022-12-19T03:54:10.228Z,28.83
2022-12-19T03:56:42.405Z,30.40
2022-12-19T03:59:34.022Z,33.38
2022-12-19T04:02:02.015Z,29.58
2022-12-19T04:04:29.366Z,34.28
2022-12-19T04:06:56.647Z,28.55
2022-12-19T04:09:23.985Z,33.83
2022-12-19T04:11:54.031Z,27.20
2022-12-19T04:14:26.729Z,28.75
2022-12-19T04:17:06.594Z,32.65
2022-12-19T04:19:41.190Z,29.05
2022-12-19T04:22:15.188Z,28.70
2022-12-19T04:24:43.604Z,29.20
2022-12-19T04:29:38.113Z,28.98
2022-12-19T04:32:06.359Z,28.60
2022-12-19T04:34:33.219Z,32.75
2022-12-19T04:37:03.594Z,30.33
2022-12-19T04:39:30.319Z,30.10
2022-12-19T04:41:56.874Z,29.02
2022-12-19T04:44:23.468Z,27.77
2022-12-19T04:46:50.113Z,29.92
2022-12-19T04:49:16.795Z,32.92
2022-12-19T04:51:43.346Z,27.30
2022-12-19T04:54:09.889Z,28.92
2022-12-19T04:56:36.481Z,36.60
2022-12-19T04:59:03.140Z,34.53
2022-12-19T05:01:29.837Z,33.33
2022-12-19T05:04:01.238Z,28.30
2022-12-19T05:06:30.888Z,28.88
2022-12-19T05:08:57.440Z,33.47
2022-12-19T05:11:24.046Z,32.47
2022-12-19T05:13:50.600Z,29.40
2022-12-19T05:16:17.391Z,30.17
2022-12-19T05:18:44.572Z,28.63
2022-12-19T05:21:11.417Z,30.25
2022-12-19T05:23:38.006Z,30.20
2022-12-19T05:26:05.938Z,30.73
2022-12-19T05:28:33.161Z,27.33
2022-12-19T05:31:11.332Z,30.63
2022-12-19T05:33:38.741Z,36.33
2022-12-19T05:36:06.073Z,30.85
2022-12-19T05:38:32.906Z,31.30
2022-12-19T05:40:59.763Z,32.70
2022-12-19T05:43:26.529Z,32.53
2022-12-19T05:45:53.068Z,28.20
2022-12-19T05:48:19.695Z,28.92
2022-12-19T05:50:50.218Z,28.77
2022-12-19T05:53:20.745Z,31.10
2022-12-19T05:55:51.170Z,31.90
2022-12-19T05:58:20.755Z,30.95
2022-12-19T06:00:47.313Z,25.95
2022-12-19T06:03:13.980Z,31.48
2022-12-19T06:05:40.613Z,33.53
2022-12-19T06:08:07.258Z,31.73
2022-12-19T06:10:34.339Z,31.55
2022-12-19T06:13:01.154Z,31.48
2022-12-19T06:15:28.022Z,31.65
2022-12-19T06:17:55.319Z,34.65
2022-12-19T06:20:22.041Z,28.13
2022-12-19T06:22:48.632Z,32.58
2022-12-19T06:25:15.222Z,31.70
2022-12-19T06:27:41.795Z,32.00
2022-12-19T06:30:08.883Z,32.60
2022-12-19T06:32:38.080Z,27.92
2022-12-19T06:35:05.677Z,32.42
2022-12-19T06:37:32.259Z,30.63
2022-12-19T06:39:58.839Z,34.25
2022-12-19T06:42:25.671Z,31.30
2022-12-19T06:44:54.342Z,32.78
2022-12-19T06:47:22.655Z,36.72
2022-12-19T06:49:49.592Z,37.55
2022-12-19T06:52:17.326Z,31.65
2022-12-19T06:54:45.183Z,28.27
2022-12-19T06:57:11.761Z,33.83
2022-12-19T06:59:38.387Z,32.50
2022-12-19T07:02:08.006Z,28.75
2022-12-19T07:04:38.083Z,32.80
2022-12-19T07:07:05.318Z,34.17
2022-12-19T07:09:33.709Z,28.08
2022-12-19T07:12:01.300Z,26.80
2022-12-19T07:14:27.869Z,27.90
2022-12-19T07:16:55.107Z,28.98
2022-12-19T07:19:22.626Z,30.02
2022-12-19T07:21:49.453Z,31.37
2022-12-19T07:24:16.066Z,26.00
2022-12-19T07:26:43.790Z,27.92
2022-12-19T07:29:12.141Z,29.20
2022-12-19T07:31:38.915Z,27.02
2022-12-19T07:34:05.657Z,28.67
2022-12-19T07:36:32.483Z,29.58
2022-12-19T07:38:59.337Z,27.17
2022-12-19T07:41:25.912Z,30.77
2022-12-19T07:43:52.487Z,28.45
2022-12-19T07:46:19.290Z,32.00
2022-12-19T07:48:45.958Z,30.15
2022-12-19T07:51:12.549Z,33.50
2022-12-19T07:53:39.110Z,24.77
2022-12-19T07:56:05.979Z,30.25
2022-12-19T07:58:32.711Z,32.72
2022-12-19T08:01:03.205Z,32.13
2022-12-19T08:03:33.519Z,32.22
2022-12-19T08:06:01.156Z,30.13
2022-12-19T08:08:28.490Z,26.45
2022-12-19T08:10:55.086Z,31.73
2022-12-19T08:13:21.656Z,33.38
2022-12-19T08:15:48.337Z,30.13
2022-12-19T08:18:14.959Z,32.83
2022-12-19T08:20:45.708Z,27.38
2022-12-19T08:23:12.269Z,28.63
2022-12-19T08:25:38.859Z,26.35
2022-12-19T08:28:05.484Z,26.00
2022-12-19T08:30:32.161Z,30.58
2022-12-19T08:32:58.801Z,27.52
2022-12-19T08:35:25.417Z,28.35
2022-12-19T08:37:51.955Z,25.15
2022-12-19T08:40:18.771Z,25.83
2022-12-19T08:42:45.330Z,27.58
2022-12-19T08:45:12.100Z,27.67
2022-12-19T08:47:38.736Z,26.38
2022-12-19T08:50:05.824Z,27.42
2022-12-19T08:52:32.484Z,27.73
2022-12-19T08:54:59.171Z,24.30
2022-12-19T08:57:26.211Z,24.85
2022-12-19T08:59:52.773Z,23.15
2022-12-19T09:02:20.289Z,25.90
2022-12-19T09:05:47.727Z,23.75
2022-12-19T09:07:37.613Z,23.65
2022-12-19T09:10:06.005Z,23.55
2022-12-19T09:12:32.586Z,24.17
2022-12-19T09:14:59.146Z,23.95
2022-12-19T09:17:25.709Z,24.40
2022-12-19T09:19:52.621Z,21.23
2022-12-19T09:22:19.173Z,21.70
2022-12-19T09:24:45.820Z,24.00
2022-12-19T09:27:12.444Z,24.02
2022-12-19T09:29:40.808Z,22.08
2022-12-19T09:32:07.500Z,18.95
2022-12-19T09:34:38.498Z,20.00
2022-12-19T09:37:16.258Z,21.70
2022-12-19T09:39:45.537Z,17.75
2022-12-19T09:42:23.579Z,17.60
2022-12-19T09:45:32.082Z,16.55
2022-12-19T09:48:00.634Z,18.65
2022-12-19T09:50:43.302Z,16.25
2022-12-19T09:53:20.048Z,17.45
2022-12-19T09:55:46.824Z,16.83
2022-12-19T09:58:32.935Z,17.05
2022-12-19T10:01:04.738Z,15.70
2022-12-19T10:03:39.625Z,15.32
2022-12-19T10:07:12.593Z,16.17
2022-12-19T10:10:45.288Z,15.27
2022-12-19T10:12:45.818Z,18.55
2022-12-19T10:15:14.880Z,15.82
2022-12-19T10:18:26.425Z,17.15
2022-12-19T10:20:56.799Z,17.88
2022-12-19T10:23:45.615Z,16.70
2022-12-19T10:26:27.330Z,19.20
2022-12-19T10:29:12.263Z,17.02
2022-12-19T10:31:57.534Z,19.67
2022-12-19T10:34:30.734Z,17.83
2022-12-19T10:37:26.899Z,17.70
2022-12-19T10:39:55.145Z,19.35
2022-12-19T10:42:37.000Z,16.73
2022-12-19T10:45:11.510Z,16.60
2022-12-19T10:47:38.828Z,18.25
2022-12-19T10:50:09.554Z,21.92
2022-12-19T10:53:07.265Z,18.00
2022-12-19T10:55:45.575Z,16.65
2022-12-19T10:58:21.460Z,18.63
2022-12-19T11:00:54.330Z,14.93
2022-12-19T11:03:21.211Z,16.50
2022-12-19T11:05:57.839Z,15.70
2022-12-19T11:08:27.854Z,15.80
2022-12-19T11:12:24.235Z,14.85
2022-12-19T11:20:09.396Z,17.90
2022-12-19T11:22:05.355Z,15.75
2022-12-19T11:29:25.719Z,16.30
2022-12-19T11:29:46.626Z,18.75
2022-12-19T11:30:08.652Z,16.75
2022-12-19T11:30:43.174Z,20.17
2022-12-19T11:34:12.943Z,18.48
2022-12-19T11:36:45.638Z,17.92
2022-12-19T11:39:48.488Z,19.83
2022-12-19T11:42:25.319Z,17.80
2022-12-19T11:45:03.777Z,16.88
2022-12-19T11:50:18.862Z,16.30
2022-12-19T11:53:14.648Z,17.65
2022-12-19T11:56:08.112Z,17.65
2022-12-19T11:58:46.437Z,17.05
2022-12-19T12:01:29.712Z,20.65
2022-12-19T12:04:33.173Z,16.40
2022-12-19T12:07:00.292Z,17.13
2022-12-19T12:12:47.441Z,16.00
2022-12-19T12:21:10.558Z,16.88
2022-12-19T12:27:36.800Z,16.45
2022-12-19T12:31:39.390Z,16.98
2022-12-19T12:31:39.937Z,17.10
2022-12-19T12:31:49.680Z,13.00
2022-12-19T12:31:57.248Z,15.93
2022-12-19T12:35:38.341Z,16.63
2022-12-19T12:38:18.730Z,18.83
2022-12-19T12:41:19.854Z,15.38
2022-12-19T12:43:52.339Z,15.00
2022-12-19T12:46:27.821Z,17.63
2022-12-19T12:49:05.590Z,14.93
2022-12-19T12:51:33.320Z,17.45
2022-12-19T12:54:05.133Z,16.67
2022-12-19T12:56:32.415Z,19.13
2022-12-19T12:59:02.065Z,19.17
2022-12-19T13:01:28.741Z,14.65
2022-12-19T13:04:04.413Z,16.00
2022-12-19T13:06:38.755Z,13.82
2022-12-19T13:09:14.085Z,17.52
2022-12-19T13:12:03.853Z,18.10
2022-12-19T13:14:37.239Z,16.55
2022-12-19T13:17:08.678Z,15.50
2022-12-19T13:19:40.301Z,16.30
2022-12-19T13:22:09.825Z,17.23
2022-12-19T13:24:47.002Z,17.55
2022-12-19T13:27:40.669Z,15.90
2022-12-19T13:30:10.469Z,14.90
2022-12-19T13:32:39.976Z,21.58
2022-12-19T13:36:30.730Z,17.88
2022-12-19T13:39:55.428Z,17.90
2022-12-19T13:41:26.357Z,17.35
2022-12-19T13:43:55.844Z,17.15
2022-12-19T13:46:31.613Z,17.58
2022-12-19T13:49:09.857Z,17.60
2022-12-19T13:51:48.477Z,14.57
2022-12-19T13:54:32.148Z,18.27
2022-12-19T13:56:59.341Z,19.80
2022-12-19T13:59:34.011Z,17.35
2022-12-19T14:02:08.095Z,15.10
2022-12-19T14:04:34.963Z,16.02
2022-12-19T14:07:04.433Z,18.35
2022-12-19T14:11:31.161Z,15.10
2022-12-19T14:13:51.086Z,15.85
2022-12-19T14:15:42.229Z,21.23
2022-12-19T14:18:45.165Z,15.68
2022-12-19T14:22:07.899Z,15.07
2022-12-19T14:24:18.587Z,15.02
2022-12-19T14:28:20.447Z,15.23
2022-12-19T14:30:26.375Z,15.88
2022-12-19T14:33:47.103Z,14.57
2022-12-19T14:36:10.008Z,15.32
2022-12-19T14:39:22.027Z,15.70
2022-12-19T14:42:00.646Z,15.18
2022-12-19T14:53:52.383Z,16.45
2022-12-19T14:54:05.399Z,18.27
2022-12-19T14:54:15.728Z,16.52
2022-12-19T14:54:21.708Z,18.08
2022-12-19T14:56:46.749Z,16.15
2022-12-19T14:59:04.468Z,17.33
2022-12-19T15:01:33.698Z,16.58
2022-12-19T15:04:48.086Z,18.77
2022-12-19T15:07:08.676Z,16.17
2022-12-19T15:11:05.182Z,15.75
2022-12-19T15:14:47.390Z,19.05
2022-12-19T15:16:03.967Z,16.10
2022-12-19T15:18:42.875Z,17.52
2022-12-19T15:21:14.350Z,16.45
2022-12-19T15:23:41.498Z,16.33
2022-12-19T15:26:13.427Z,21.00
2022-12-19T15:28:44.253Z,21.23
2022-12-19T15:31:24.449Z,19.27
2022-12-19T15:34:32.182Z,20.40
2022-12-19T15:36:37.725Z,19.95
2022-12-19T15:39:04.550Z,22.77
2022-12-19T15:41:31.491Z,22.98
2022-12-19T15:44:06.069Z,22.48
2022-12-19T15:46:33.382Z,25.20
2022-12-19T15:49:00.161Z,21.58
2022-12-19T15:51:26.775Z,22.55
2022-12-19T15:53:53.588Z,20.90
2022-12-19T15:56:24.614Z,24.98
2022-12-19T15:58:52.351Z,24.23
2022-12-19T16:01:19.248Z,26.20
2022-12-19T16:03:46.214Z,23.95
2022-12-19T16:06:13.839Z,24.20
2022-12-19T16:08:40.702Z,24.27
2022-12-19T16:11:16.727Z,24.83
2022-12-19T16:13:45.725Z,32.83
2022-12-19T16:16:15.777Z,27.20
2022-12-19T16:18:44.464Z,23.08
2022-12-19T16:21:27.487Z,22.83
2022-12-19T16:23:58.032Z,24.20
2022-12-19T16:26:31.622Z,21.85
2022-12-19T16:28:58.375Z,24.73
2022-12-19T16:31:26.532Z,23.05
2022-12-19T16:33:54.019Z,23.45
2022-12-19T16:36:20.670Z,25.80
2022-12-19T16:38:47.382Z,23.88
2022-12-19T16:41:22.176Z,23.65
2022-12-19T16:43:48.778Z,24.75
2022-12-19T16:46:21.141Z,23.05
2022-12-19T16:48:48.248Z,22.50
2022-12-19T16:51:24.162Z,24.02
2022-12-19T16:53:52.994Z,22.67
2022-12-19T16:56:38.085Z,19.80
2022-12-19T16:59:11.766Z,32.85
2022-12-19T17:01:38.552Z,44.22
2022-12-19T17:04:05.690Z,45.33
2022-12-19T17:06:32.295Z,43.40
2022-12-19T17:08:58.900Z,40.33
2022-12-19T17:11:26.250Z,25.40
2022-12-19T17:13:57.272Z,19.75
2022-12-19T17:16:23.887Z,17.33
2022-12-19T17:18:50.663Z,20.20
2022-12-19T17:21:21.923Z,17.88
2022-12-19T17:23:49.794Z,16.85
2022-12-19T17:26:18.249Z,15.98
2022-12-19T17:28:48.097Z,14.68
2022-12-19T17:31:26.620Z,14.48
2022-12-19T17:36:26.071Z,12.50
2022-12-19T17:38:54.298Z,15.32
2022-12-19T17:41:20.896Z,14.32
2022-12-19T17:43:47.525Z,13.82
2022-12-19T17:46:22.057Z,15.18
2022-12-19T17:48:51.193Z,11.95
2022-12-19T17:51:20.467Z,14.95
2022-12-19T17:53:47.502Z,15.15
2022-12-19T17:56:15.341Z,14.50
2022-12-19T17:58:42.183Z,16.00
2022-12-19T18:01:17.061Z,12.02
2022-12-19T18:03:43.767Z,12.98
2022-12-19T18:06:12.390Z,15.80
2022-12-19T18:08:39.269Z,13.60
2022-12-19T18:11:07.834Z,11.95
2022-12-19T18:16:02.876Z,11.63
2022-12-19T18:18:34.991Z,13.35
2022-12-19T18:21:02.696Z,13.82
2022-12-19T18:23:30.668Z,12.77
2022-12-19T18:26:01.529Z,12.85
2022-12-19T18:28:29.480Z,12.82
2022-12-19T18:31:03.809Z,12.27
2022-12-19T18:33:37.188Z,11.43
2022-12-19T18:36:05.431Z,12.82
2022-12-19T18:38:32.100Z,9.48
2022-12-19T18:40:58.806Z,11.85
2022-12-19T18:43:26.318Z,15.02
2022-12-19T18:45:53.310Z,11.82
2022-12-19T18:48:25.931Z,13.30
2022-12-19T18:50:53.446Z,12.15
2022-12-19T18:53:21.849Z,11.70
2022-12-19T18:55:48.551Z,15.05
2022-12-19T18:58:15.431Z,13.75
2022-12-19T19:00:42.663Z,13.65
2022-12-19T19:03:15.195Z,11.43
2022-12-19T19:05:42.039Z,10.70
2022-12-19T19:08:16.359Z,14.38
2022-12-19T19:10:43.353Z,12.73
2022-12-19T19:13:10.351Z,16.50
2022-12-19T19:15:42.877Z,14.68
2022-12-19T19:18:09.498Z,14.18
2022-12-19T19:20:38.687Z,17.13
2022-12-19T19:23:11.524Z,11.35
2022-12-19T19:25:38.129Z,11.18
2022-12-19T19:28:05.664Z,12.38
2022-12-19T19:30:33.306Z,11.70
2022-12-19T19:33:06.238Z,10.60
2022-12-19T19:35:33.289Z,11.32
2022-12-19T19:38:02.008Z,11.55
2022-12-19T19:40:28.714Z,13.80
2022-12-19T19:42:55.285Z,11.88
2022-12-19T19:45:23.425Z,11.52
2022-12-19T19:47:49.998Z,13.05
2022-12-19T19:50:16.707Z,10.13
2022-12-19T19:52:43.342Z,12.18
2022-12-19T19:55:10.226Z,13.90
2022-12-19T19:57:37.375Z,11.52
2022-12-19T20:00:05.214Z,13.70
2022-12-19T20:02:31.920Z,15.45
2022-12-19T20:04:58.611Z,13.18
2022-12-19T20:07:25.260Z,14.40
2022-12-19T20:09:52.007Z,12.90
2022-12-19T20:12:18.735Z,16.25
2022-12-19T20:14:45.316Z,13.88
2022-12-19T20:17:11.922Z,12.35
2022-12-19T20:19:39.190Z,15.35
2022-12-19T20:22:05.872Z,15.55
2022-12-19T20:24:32.502Z,14.00
2022-12-19T20:26:59.409Z,14.23
2022-12-19T20:29:26.289Z,15.82
2022-12-19T20:31:52.913Z,12.45
2022-12-19T20:34:20.174Z,13.90
2022-12-19T20:36:46.868Z,16.63
2022-12-19T20:39:14.083Z,13.80
2022-12-19T20:41:40.687Z,15.27
2022-12-19T20:44:07.481Z,11.65
2022-12-19T20:46:34.091Z,13.13
2022-12-19T20:49:00.924Z,13.77
2022-12-19T20:51:27.520Z,14.52
2022-12-19T20:53:54.800Z,12.82
2022-12-19T20:56:23.363Z,12.70
2022-12-19T21:01:20.093Z,15.10
2022-12-19T21:03:48.482Z,13.07
2022-12-19T21:06:17.043Z,14.68
2022-12-19T21:08:43.649Z,19.15
2022-12-19T21:11:10.619Z,16.38
2022-12-19T21:13:38.191Z,13.90
2022-12-19T21:16:10.100Z,15.25
2022-12-19T21:18:38.684Z,16.17
2022-12-19T21:23:32.714Z,12.75
2022-12-19T21:26:01.440Z,14.07
2022-12-19T21:28:28.865Z,15.50
2022-12-19T21:31:03.480Z,13.90
2022-12-19T21:33:30.661Z,16.27
2022-12-19T21:35:57.278Z,12.77
2022-12-19T21:38:24.547Z,12.40
2022-12-19T21:40:51.141Z,13.13
2022-12-19T21:43:17.696Z,12.15
2022-12-19T21:45:44.323Z,12.02
2022-12-19T21:48:10.934Z,14.35
2022-12-19T21:50:37.564Z,12.02
2022-12-19T21:53:04.131Z,10.95
2022-12-19T21:55:30.769Z,11.02
2022-12-19T21:57:57.338Z,11.35
2022-12-19T22:00:23.983Z,12.80
2022-12-19T22:03:12.605Z,13.80
2022-12-19T22:05:38.217Z,11.10
2022-12-19T22:08:05.013Z,10.30
2022-12-19T22:10:31.559Z,11.07
2022-12-19T22:12:58.091Z,11.98
2022-12-19T22:15:24.640Z,13.40
2022-12-19T22:17:51.181Z,15.43
2022-12-19T22:20:17.749Z,9.82
2022-12-19T22:22:44.302Z,12.05
2022-12-19T22:25:10.849Z,11.73
2022-12-19T22:27:37.493Z,15.43
2022-12-19T22:30:10.655Z,11.18
2022-12-19T22:32:37.843Z,12.73
2022-12-19T22:35:04.779Z,8.25
2022-12-19T22:37:31.504Z,9.38
2022-12-19T22:40:00.328Z,12.13
2022-12-19T22:42:30.175Z,10.82
2022-12-19T22:44:56.758Z,11.88
2022-12-19T22:47:23.483Z,9.95
2022-12-19T22:49:53.027Z,9.30
2022-12-19T22:52:19.693Z,11.25
2022-12-19T22:54:46.248Z,9.95
2022-12-19T22:57:12.804Z,9.18
2022-12-19T22:59:39.888Z,8.27
2022-12-19T23:02:06.618Z,11.65
2022-12-19T23:04:33.382Z,8.23
2022-12-19T23:06:59.963Z,11.98
2022-12-19T23:09:26.522Z,10.05
2022-12-19T23:11:53.312Z,10.60
2022-12-19T23:14:20.131Z,9.82
2022-12-19T23:16:47.066Z,11.00
2022-12-19T23:19:17.404Z,9.45
2022-12-19T23:21:44.121Z,8.68
2022-12-19T23:24:11.022Z,11.13
2022-12-19T23:26:38.350Z,9.07
2022-12-19T23:29:10.035Z,9.93
2022-12-19T23:31:40.042Z,8.80
2022-12-19T23:34:06.784Z,9.18
2022-12-19T23:39:19.998Z,8.38
2022-12-19T23:41:46.598Z,6.72
2022-12-19T23:44:13.494Z,7.05
2022-12-19T23:46:40.260Z,8.30
2022-12-19T23:49:06.904Z,7.82
2022-12-19T23:51:33.543Z,7.90
2022-12-19T23:54:00.113Z,7.80
2022-12-19T23:56:29.554Z,8.48
2022-12-19T23:58:56.824Z,8.20
